createdAt,value
2018-06-03T00:01:46.680Z,19.93
2018-06-03T00:04:16.091Z,21.50
2018-06-03T00:06:45.368Z,23.93
2018-06-03T00:09:14.824Z,20.53
2018-06-03T00:11:44.541Z,22.10
2018-06-03T00:14:14.214Z,22.03
2018-06-03T00:16:43.630Z,21.57
2018-06-03T00:19:13.194Z,22.30
2018-06-03T00:21:43.903Z,21.40
2018-06-03T00:24:13.337Z,20.47
2018-06-03T00:26:42.777Z,23.62
2018-06-03T00:29:12.333Z,20.27
2018-06-03T00:31:41.516Z,22.37
2018-06-03T00:34:10.713Z,22.23
2018-06-03T00:36:44.504Z,20.60
2018-06-03T00:39:13.953Z,21.70
2018-06-03T00:41:43.403Z,21.20
2018-06-03T00:44:12.930Z,21.33
2018-06-03T00:46:42.355Z,21.93
2018-06-03T00:49:11.580Z,20.33
2018-06-03T00:51:41.111Z,22.67
2018-06-03T00:54:10.527Z,23.30
2018-06-03T00:56:45.517Z,20.07
2018-06-03T00:59:14.988Z,22.70
2018-06-03T01:01:44.408Z,22.67
2018-06-03T01:04:13.631Z,22.60
2018-06-03T01:06:43.143Z,20.90
2018-06-03T01:09:12.793Z,22.40
2018-06-03T01:11:42.508Z,21.87
2018-06-03T01:14:11.960Z,22.10
2018-06-03T01:16:41.465Z,20.40
2018-06-03T01:19:10.876Z,19.30
2018-06-03T01:21:40.332Z,22.97
2018-06-03T01:24:09.729Z,21.20
2018-06-03T01:26:39.194Z,21.87
2018-06-03T01:29:08.869Z,20.43
2018-06-03T01:31:38.333Z,21.20
2018-06-03T01:34:07.505Z,26.10
2018-06-03T01:36:36.997Z,20.70
2018-06-03T01:39:06.711Z,20.50
2018-06-03T01:41:36.198Z,23.57
2018-06-03T01:44:05.629Z,22.83
2018-06-03T01:46:34.850Z,21.23
2018-06-03T01:49:04.290Z,19.37
2018-06-03T01:51:33.981Z,22.97
2018-06-03T01:54:03.403Z,19.67
2018-06-03T01:56:32.607Z,18.47
2018-06-03T01:59:01.838Z,22.70
2018-06-03T02:01:31.817Z,19.30
2018-06-03T02:04:01.240Z,20.17
2018-06-03T02:06:30.477Z,19.83
2018-06-03T02:08:59.684Z,18.87
2018-06-03T02:11:28.902Z,20.47
2018-06-03T02:13:58.129Z,18.90
2018-06-03T02:16:27.345Z,17.77
2018-06-03T02:18:56.804Z,18.10
2018-06-03T02:21:26.473Z,19.30
2018-06-03T02:23:55.888Z,20.03
2018-06-03T02:26:25.105Z,17.80
2018-06-03T02:28:54.316Z,19.37
2018-06-03T02:31:23.763Z,18.67
2018-06-03T02:33:53.261Z,19.80
2018-06-03T02:36:22.489Z,19.17
2018-06-03T02:38:51.977Z,18.07
2018-06-03T02:41:21.390Z,19.43
2018-06-03T02:43:50.588Z,17.00
2018-06-03T02:46:19.788Z,19.10
2018-06-03T02:48:49.067Z,18.93
2018-06-03T02:51:18.506Z,19.97
2018-06-03T02:53:47.968Z,18.97
2018-06-03T02:56:17.179Z,18.90
2018-06-03T02:58:46.379Z,20.10
2018-06-03T03:01:15.817Z,20.80
2018-06-03T03:03:45.259Z,20.60
2018-06-03T03:06:14.493Z,20.30
2018-06-03T03:08:44.063Z,21.03
2018-06-03T03:11:13.539Z,17.97
2018-06-03T03:13:42.977Z,19.43
2018-06-03T03:16:12.390Z,19.37
2018-06-03T03:18:41.611Z,20.57
2018-06-03T03:21:10.803Z,20.03
2018-06-03T03:23:40.033Z,19.03
2018-06-03T03:26:09.243Z,18.70
2018-06-03T03:28:38.519Z,19.43
2018-06-03T03:31:07.716Z,20.90
2018-06-03T03:33:36.895Z,19.80
2018-06-03T03:36:06.133Z,17.67
2018-06-03T03:38:35.649Z,19.77
2018-06-03T03:41:05.303Z,18.30
2018-06-03T03:43:34.737Z,19.20
2018-06-03T03:46:04.165Z,18.67
2018-06-03T03:48:33.831Z,18.93
2018-06-03T03:51:03.511Z,18.50
2018-06-03T03:53:33.167Z,16.67
2018-06-03T03:56:02.838Z,18.90
2018-06-03T03:58:32.049Z,17.87
2018-06-03T04:01:01.249Z,17.80
2018-06-03T04:03:30.459Z,18.60
2018-06-03T04:05:59.656Z,17.93
2018-06-03T04:08:29.097Z,18.53
2018-06-03T04:10:58.493Z,17.70
2018-06-03T04:13:27.711Z,19.33
2018-06-03T04:15:56.941Z,17.77
2018-06-03T04:18:26.141Z,18.77
2018-06-03T04:20:55.372Z,16.53
2018-06-03T04:23:24.596Z,18.63
2018-06-03T04:25:53.811Z,18.10
2018-06-03T04:28:23.021Z,17.87
2018-06-03T04:30:52.224Z,17.07
2018-06-03T04:33:21.689Z,17.47
2018-06-03T04:35:51.371Z,18.43
2018-06-03T04:38:21.024Z,17.20
2018-06-03T04:40:50.435Z,18.83
2018-06-03T04:43:19.654Z,17.13
2018-06-03T04:45:49.575Z,16.93
2018-06-03T04:48:19.257Z,18.20
2018-06-03T04:50:48.941Z,17.43
2018-06-03T04:53:18.394Z,16.73
2018-06-03T04:55:47.578Z,16.17
2018-06-03T04:58:16.813Z,16.43
2018-06-03T05:00:46.263Z,15.23
2018-06-03T05:03:15.929Z,16.57
2018-06-03T05:05:45.603Z,15.50
2018-06-03T05:08:15.033Z,15.53
2018-06-03T05:10:44.235Z,18.80
2018-06-03T05:13:13.421Z,17.43
2018-06-03T05:15:42.941Z,15.40
2018-06-03T05:18:12.347Z,16.93
2018-06-03T05:20:41.554Z,16.03
2018-06-03T05:23:10.800Z,15.80
2018-06-03T05:25:40.271Z,15.50
2018-06-03T05:28:09.689Z,16.50
2018-06-03T05:30:39.152Z,17.00
2018-06-03T05:33:08.558Z,17.87
2018-06-03T05:35:38.011Z,17.00
2018-06-03T05:38:07.407Z,15.97
2018-06-03T05:40:36.727Z,16.33
2018-06-03T05:43:05.923Z,18.40
2018-06-03T05:45:35.119Z,14.53
2018-06-03T05:48:04.329Z,15.70
2018-06-03T05:50:33.571Z,16.17
2018-06-03T05:53:03.017Z,14.93
2018-06-03T05:55:32.676Z,17.83
2018-06-03T05:58:02.334Z,16.30
2018-06-03T06:00:31.779Z,14.70
2018-06-03T06:03:01.221Z,15.73
2018-06-03T06:05:30.905Z,15.67
2018-06-03T06:08:00.561Z,15.70
2018-06-03T06:10:29.986Z,14.33
2018-06-03T06:12:59.439Z,15.97
2018-06-03T06:15:28.905Z,16.87
2018-06-03T06:17:58.076Z,13.47
2018-06-03T06:20:27.299Z,13.20
2018-06-03T06:22:56.756Z,13.90
2018-06-03T06:25:26.191Z,15.73
2018-06-03T06:27:55.409Z,13.97
2018-06-03T06:30:24.617Z,14.23
2018-06-03T06:32:55.131Z,15.17
2018-06-03T06:35:24.348Z,14.80
2018-06-03T06:37:53.883Z,15.20
2018-06-03T06:40:23.534Z,14.83
2018-06-03T06:42:53.300Z,15.80
2018-06-03T06:45:22.742Z,15.10
2018-06-03T06:47:52.204Z,13.97
2018-06-03T06:50:21.767Z,15.57
2018-06-03T06:52:51.214Z,15.13
2018-06-03T06:55:20.890Z,14.23
2018-06-03T06:57:50.314Z,15.47
2018-06-03T07:00:19.529Z,15.87
2018-06-03T07:02:48.731Z,16.73
2018-06-03T07:05:17.928Z,15.57
2018-06-03T07:07:47.130Z,16.63
2018-06-03T07:10:16.621Z,15.53
2018-06-03T07:12:46.049Z,15.77
2018-06-03T07:15:15.494Z,16.53
2018-06-03T07:17:44.938Z,15.67
2018-06-03T07:20:14.392Z,16.47
2018-06-03T07:22:44.073Z,14.77
2018-06-03T07:25:13.715Z,13.60
2018-06-03T07:27:43.311Z,16.90
2018-06-03T07:30:12.508Z,15.30
2018-06-03T07:32:42.101Z,15.43
2018-06-03T07:35:11.519Z,14.50
2018-06-03T07:37:41.224Z,15.63
2018-06-03T07:40:10.647Z,14.50
2018-06-03T07:42:40.152Z,15.13
2018-06-03T07:45:09.608Z,15.13
2018-06-03T07:47:38.838Z,15.03
2018-06-03T07:50:08.012Z,15.17
2018-06-03T07:52:37.483Z,15.70
2018-06-03T07:55:06.890Z,15.57
2018-06-03T07:57:36.132Z,14.93
2018-06-03T08:00:06.289Z,15.27
2018-06-03T08:02:35.702Z,14.73
2018-06-03T08:05:04.877Z,13.90
2018-06-03T08:07:34.095Z,14.23
2018-06-03T08:10:03.554Z,14.20
2018-06-03T08:12:33.236Z,14.70
2018-06-03T08:15:02.956Z,14.67
2018-06-03T08:17:32.709Z,14.47
2018-06-03T08:20:02.126Z,14.77
2018-06-03T08:22:31.582Z,14.87
2018-06-03T08:25:01.220Z,15.40
2018-06-03T08:27:30.932Z,15.83
2018-06-03T08:30:00.387Z,15.80
2018-06-03T08:32:29.640Z,16.87
2018-06-03T08:34:58.842Z,15.20
2018-06-03T08:37:28.115Z,18.23
2018-06-03T08:39:57.531Z,18.80
2018-06-03T08:42:26.991Z,18.07
2018-06-03T08:44:56.190Z,18.13
2018-06-03T08:47:25.441Z,16.50
2018-06-03T08:49:54.650Z,17.00
2018-06-03T08:52:23.834Z,16.60
2018-06-03T08:54:53.082Z,17.57
2018-06-03T08:57:22.268Z,17.27
2018-06-03T08:59:51.485Z,17.37
2018-06-03T09:02:20.923Z,19.30
2018-06-03T09:04:50.377Z,17.03
2018-06-03T09:07:19.577Z,17.27
2018-06-03T09:09:49.110Z,16.23
2018-06-03T09:12:18.771Z,16.23
2018-06-03T09:14:48.227Z,14.77
2018-06-03T09:17:17.462Z,15.07
2018-06-03T09:19:46.699Z,13.97
2018-06-03T09:22:16.147Z,16.10
2018-06-03T09:24:45.810Z,12.60
2018-06-03T09:27:15.673Z,13.83
2018-06-03T09:29:45.357Z,13.00
2018-06-03T09:32:14.810Z,11.70
2018-06-03T09:34:44.116Z,11.77
2018-06-03T09:37:13.263Z,12.77
2018-06-03T09:39:42.485Z,14.87
2018-06-03T09:42:11.938Z,13.90
2018-06-03T09:44:41.790Z,13.90
2018-06-03T09:47:11.756Z,12.57
2018-06-03T09:49:41.459Z,13.60
2018-06-03T09:52:11.156Z,13.40
2018-06-03T09:54:42.247Z,12.97
2018-06-03T09:57:11.709Z,13.73
2018-06-03T09:59:40.933Z,13.70
2018-06-03T10:02:10.507Z,14.47
2018-06-03T10:04:40.237Z,14.70
2018-06-03T10:07:09.679Z,11.87
2018-06-03T10:09:39.155Z,13.87
2018-06-03T10:12:08.651Z,11.87
2018-06-03T10:14:37.887Z,11.73
2018-06-03T10:17:07.082Z,14.73
2018-06-03T10:19:36.651Z,13.60
2018-06-03T10:22:06.778Z,13.57
2018-06-03T10:24:38.365Z,12.57
2018-06-03T10:27:07.789Z,11.77
2018-06-03T10:29:37.059Z,12.20
2018-06-03T10:32:06.517Z,12.80
2018-06-03T10:34:36.291Z,12.70
2018-06-03T10:37:06.013Z,11.87
2018-06-03T10:39:35.699Z,11.37
2018-06-03T10:42:05.405Z,12.93
2018-06-03T10:44:35.707Z,12.00
2018-06-03T10:47:05.809Z,11.07
2018-06-03T10:49:35.313Z,12.03
2018-06-03T10:52:04.554Z,10.03
2018-06-03T10:54:33.812Z,11.60
2018-06-03T10:57:03.247Z,11.90
2018-06-03T10:59:32.734Z,11.10
2018-06-03T11:02:02.199Z,11.20
2018-06-03T11:04:31.895Z,11.40
2018-06-03T11:07:01.630Z,10.53
2018-06-03T11:09:31.411Z,11.37
2018-06-03T11:12:01.122Z,11.33
2018-06-03T11:14:30.564Z,11.43
2018-06-03T11:16:59.789Z,12.30
2018-06-03T11:19:29.352Z,11.63
2018-06-03T11:21:59.031Z,11.37
2018-06-03T11:24:28.457Z,10.43
2018-06-03T11:26:57.940Z,11.40
2018-06-03T11:29:27.651Z,10.90
2018-06-03T11:31:57.085Z,11.33
2018-06-03T11:34:26.308Z,9.97
2018-06-03T11:36:55.533Z,12.50
2018-06-03T11:39:24.975Z,11.73
2018-06-03T11:41:54.719Z,12.17
2018-06-03T11:44:24.126Z,12.17
2018-06-03T11:46:53.629Z,11.40
2018-06-03T11:49:23.053Z,9.43
2018-06-03T11:51:52.507Z,10.97
2018-06-03T11:54:21.935Z,9.93
2018-06-03T11:56:56.765Z,10.30
2018-06-03T11:59:31.543Z,9.53
2018-06-03T12:02:01.031Z,7.90
2018-06-03T12:04:30.455Z,7.87
2018-06-03T12:06:59.697Z,7.53
2018-06-03T12:09:29.220Z,8.83
2018-06-03T12:11:58.935Z,8.03
2018-06-03T12:14:28.369Z,9.20
2018-06-03T12:16:57.590Z,8.40
2018-06-03T12:19:27.323Z,8.83
2018-06-03T12:21:56.556Z,8.37
2018-06-03T12:24:26.035Z,9.33
2018-06-03T12:26:55.471Z,9.83
2018-06-03T12:29:24.686Z,9.33
2018-06-03T12:31:54.081Z,10.70
2018-06-03T12:34:23.534Z,9.83
2018-06-03T12:36:53.229Z,8.70
2018-06-03T12:39:22.695Z,9.60
2018-06-03T12:41:51.986Z,9.40
2018-06-03T12:44:21.481Z,9.63
2018-06-03T12:46:50.927Z,8.90
2018-06-03T12:49:20.140Z,9.47
2018-06-03T12:51:49.606Z,8.43
2018-06-03T12:54:19.073Z,8.70
2018-06-03T12:56:48.269Z,9.97
2018-06-03T12:59:17.459Z,9.80
2018-06-03T13:01:46.978Z,9.73
2018-06-03T13:04:16.660Z,10.13
2018-06-03T13:06:46.180Z,10.93
2018-06-03T13:09:15.675Z,9.57
2018-06-03T13:11:45.401Z,9.60
2018-06-03T13:14:15.112Z,10.07
2018-06-03T13:16:44.588Z,10.70
2018-06-03T13:19:14.064Z,10.40
2018-06-03T13:21:43.556Z,10.43
2018-06-03T13:24:12.766Z,10.30
2018-06-03T13:26:42.227Z,10.50
2018-06-03T13:29:11.929Z,10.40
2018-06-03T13:31:42.373Z,11.47
2018-06-03T13:34:11.876Z,10.00
2018-06-03T13:36:41.330Z,9.70
2018-06-03T13:39:11.096Z,10.93
2018-06-03T13:41:40.531Z,11.00
2018-06-03T13:44:09.820Z,10.77
2018-06-03T13:46:39.089Z,9.40
2018-06-03T13:49:08.307Z,11.17
2018-06-03T13:51:37.790Z,10.90
2018-06-03T13:54:07.205Z,9.83
2018-06-03T13:56:36.423Z,9.67
2018-06-03T13:59:05.671Z,9.73
2018-06-03T14:01:34.851Z,10.03
2018-06-03T14:04:04.319Z,9.37
2018-06-03T14:06:33.732Z,9.80
2018-06-03T14:09:03.283Z,8.90
2018-06-03T14:11:32.692Z,9.40
2018-06-03T14:14:01.932Z,9.70
2018-06-03T14:16:31.143Z,9.83
2018-06-03T14:19:00.564Z,8.57
2018-06-03T14:21:30.259Z,7.77
2018-06-03T14:23:59.658Z,10.07
2018-06-03T14:26:28.868Z,9.73
2018-06-03T14:28:58.122Z,10.20
2018-06-03T14:31:27.627Z,8.97
2018-06-03T14:33:57.296Z,8.57
2018-06-03T14:36:27.100Z,9.20
2018-06-03T14:38:56.791Z,9.53
2018-06-03T14:41:26.228Z,8.50
2018-06-03T14:43:55.448Z,7.93
2018-06-03T14:46:24.636Z,7.80
2018-06-03T14:48:53.842Z,9.20
2018-06-03T14:51:23.296Z,9.07
2018-06-03T14:53:52.703Z,8.60
2018-06-03T14:56:21.919Z,8.10
2018-06-03T14:58:51.336Z,8.10
2018-06-03T15:01:20.984Z,8.13
2018-06-03T15:03:50.514Z,8.90
2018-06-03T15:06:19.716Z,7.90
2018-06-03T15:08:48.982Z,7.50
2018-06-03T15:11:18.458Z,7.50
2018-06-03T15:13:47.943Z,6.00
2018-06-03T15:16:17.415Z,6.20
2018-06-03T15:18:46.882Z,5.90
2018-06-03T15:21:16.582Z,5.57
2018-06-03T15:23:46.034Z,5.53
2018-06-03T15:26:15.566Z,6.33
2018-06-03T15:28:45.114Z,5.57
2018-06-03T15:31:14.624Z,6.30
2018-06-03T15:33:44.081Z,5.00
2018-06-03T15:36:13.932Z,4.60
2018-06-03T15:38:43.345Z,4.17
2018-06-03T15:41:12.537Z,4.53
2018-06-03T15:43:41.990Z,4.70
2018-06-03T15:46:11.457Z,5.07
2018-06-03T15:48:40.654Z,4.47
2018-06-03T15:51:10.144Z,4.20
2018-06-03T15:53:39.585Z,4.93
2018-06-03T15:56:08.817Z,4.30
2018-06-03T15:58:38.188Z,4.13
2018-06-03T16:01:07.399Z,3.73
2018-06-03T16:03:36.870Z,4.60
2018-06-03T16:06:06.289Z,4.83
2018-06-03T16:08:35.490Z,4.20
2018-06-03T16:11:04.857Z,4.60
2018-06-03T16:13:34.048Z,4.30
2018-06-03T16:16:03.562Z,4.97
2018-06-03T16:18:33.224Z,5.37
2018-06-03T16:21:02.681Z,4.50
2018-06-03T16:23:32.111Z,4.37
2018-06-03T16:26:01.785Z,5.73
2018-06-03T16:28:31.470Z,4.70
2018-06-03T16:31:01.224Z,4.70
2018-06-03T16:33:30.852Z,4.80
2018-06-03T16:36:00.542Z,4.97
2018-06-03T16:38:30.182Z,4.20
2018-06-03T16:40:59.607Z,4.23
2018-06-03T16:43:29.299Z,5.50
2018-06-03T16:45:58.721Z,4.13
2018-06-03T16:48:28.152Z,4.47
2018-06-03T16:50:57.854Z,4.30
2018-06-03T16:53:27.284Z,4.30
2018-06-03T16:55:56.864Z,4.70
2018-06-03T16:58:26.057Z,4.10
2018-06-03T17:00:55.306Z,3.87
2018-06-03T17:03:24.544Z,4.80
2018-06-03T17:05:53.976Z,4.40
2018-06-03T17:08:23.386Z,4.80
2018-06-03T17:10:52.846Z,3.93
2018-06-03T17:13:22.125Z,4.10
2018-06-03T17:15:51.274Z,4.40
2018-06-03T17:18:20.734Z,4.80
2018-06-03T17:20:50.185Z,4.90
2018-06-03T17:23:19.626Z,4.90
2018-06-03T17:25:49.302Z,4.10
2018-06-03T17:28:18.743Z,4.20
2018-06-03T17:30:48.300Z,4.80
2018-06-03T17:33:17.725Z,4.87
2018-06-03T17:35:46.945Z,4.70
2018-06-03T17:38:16.148Z,4.10
2018-06-03T17:40:45.375Z,5.20
2018-06-03T17:43:14.574Z,4.57
2018-06-03T17:45:44.008Z,5.23
2018-06-03T17:48:13.706Z,4.97
2018-06-03T17:50:43.135Z,4.70
2018-06-03T17:53:12.604Z,5.00
2018-06-03T17:55:43.360Z,4.80
2018-06-03T17:58:13.064Z,5.23
2018-06-03T18:00:42.472Z,4.73
2018-06-03T18:03:11.705Z,5.43
2018-06-03T18:05:41.166Z,5.63
2018-06-03T18:08:10.828Z,4.93
2018-06-03T18:10:40.219Z,5.57
2018-06-03T18:13:09.428Z,5.87
2018-06-03T18:15:38.622Z,6.80
2018-06-03T18:18:07.844Z,6.30
2018-06-03T18:20:37.378Z,7.10
2018-06-03T18:23:07.150Z,7.70
2018-06-03T18:25:36.558Z,6.80
2018-06-03T18:28:05.745Z,7.57
2018-06-03T18:30:35.279Z,8.47
2018-06-03T18:33:04.717Z,8.57
2018-06-03T18:35:34.233Z,9.77
2018-06-03T18:38:03.999Z,9.80
2018-06-03T18:40:33.825Z,9.70
2018-06-03T18:43:03.545Z,10.03
2018-06-03T18:45:33.003Z,10.40
2018-06-03T18:48:02.485Z,11.37
2018-06-03T18:50:32.187Z,10.53
2018-06-03T18:53:01.906Z,10.83
2018-06-03T18:55:32.251Z,10.53
2018-06-03T18:58:01.711Z,11.00
2018-06-03T19:00:30.956Z,10.40
2018-06-03T19:03:00.215Z,9.53
2018-06-03T19:05:29.735Z,11.33
2018-06-03T19:07:59.278Z,10.10
2018-06-03T19:10:28.705Z,10.87
2018-06-03T19:12:58.389Z,11.20
2018-06-03T19:15:28.091Z,10.30
2018-06-03T19:17:57.594Z,9.97
2018-06-03T19:20:26.912Z,8.90
2018-06-03T19:22:56.341Z,9.80
2018-06-03T19:25:26.090Z,10.67
2018-06-03T19:27:55.558Z,11.33
2018-06-03T19:30:24.747Z,11.80
2018-06-03T19:32:53.981Z,12.50
2018-06-03T19:35:23.913Z,10.80
2018-06-03T19:37:53.595Z,12.20
2018-06-03T19:40:23.348Z,12.47
2018-06-03T19:42:53.057Z,10.93
2018-06-03T19:45:22.741Z,10.43
2018-06-03T19:47:52.165Z,12.20
2018-06-03T19:50:21.458Z,10.10
2018-06-03T19:52:50.696Z,9.57
2018-06-03T19:55:20.201Z,12.17
2018-06-03T19:57:49.721Z,9.03
2018-06-03T20:00:18.950Z,9.90
2018-06-03T20:02:48.163Z,10.00
2018-06-03T20:05:17.654Z,9.07
2018-06-03T20:07:47.384Z,9.30
2018-06-03T20:10:17.076Z,10.10
2018-06-03T20:12:46.778Z,9.27
2018-06-03T20:15:16.233Z,10.30
2018-06-03T20:17:45.535Z,8.50
2018-06-03T20:20:14.698Z,9.70
2018-06-03T20:22:44.164Z,9.07
2018-06-03T20:25:13.849Z,9.60
2018-06-03T20:27:43.293Z,8.80
2018-06-03T20:30:12.506Z,8.20
2018-06-03T20:32:41.980Z,8.73
2018-06-03T20:35:11.385Z,8.47
2018-06-03T20:37:40.818Z,8.77
2018-06-03T20:40:10.288Z,9.13
2018-06-03T20:42:39.786Z,8.00
2018-06-03T20:45:09.723Z,8.97
2018-06-03T20:47:39.405Z,8.60
2018-06-03T20:50:08.826Z,9.50
2018-06-03T20:52:39.131Z,8.53
2018-06-03T20:55:08.868Z,8.10
2018-06-03T20:57:38.272Z,9.00
2018-06-03T21:00:07.506Z,8.13
2018-06-03T21:02:36.744Z,8.73
2018-06-03T21:05:06.209Z,8.53
2018-06-03T21:07:35.654Z,8.23
2018-06-03T21:10:05.142Z,8.20
2018-06-03T21:12:34.640Z,7.30
2018-06-03T21:15:05.573Z,8.30
2018-06-03T21:17:35.265Z,8.43
2018-06-03T21:20:04.961Z,8.07
2018-06-03T21:22:34.635Z,8.50
2018-06-03T21:25:04.076Z,8.67
2018-06-03T21:27:33.285Z,9.90
2018-06-03T21:30:02.481Z,8.57
2018-06-03T21:32:31.950Z,7.83
2018-06-03T21:35:01.653Z,8.97
2018-06-03T21:37:31.080Z,9.10
2018-06-03T21:40:00.291Z,8.50
2018-06-03T21:42:29.774Z,8.50
2018-06-03T21:44:59.194Z,8.40
2018-06-03T21:47:28.421Z,9.50
2018-06-03T21:50:04.476Z,8.60
2018-06-03T21:52:34.132Z,9.03
2018-06-03T21:55:03.781Z,8.77
2018-06-03T21:57:33.321Z,8.87
2018-06-03T22:00:02.536Z,8.97
2018-06-03T22:02:31.722Z,9.60
2018-06-03T22:05:00.934Z,8.80
2018-06-03T22:07:30.389Z,9.40
2018-06-03T22:10:00.065Z,9.33
2018-06-03T22:12:29.724Z,8.80
2018-06-03T22:14:59.118Z,9.80
2018-06-03T22:17:28.348Z,10.47
2018-06-03T22:19:57.807Z,9.90
2018-06-03T22:22:27.234Z,10.70
2018-06-03T22:24:56.506Z,9.87
2018-06-03T22:27:25.715Z,10.50
2018-06-03T22:29:55.160Z,10.10
2018-06-03T22:32:24.584Z,10.40
2018-06-03T22:34:54.020Z,10.13
2018-06-03T22:37:23.473Z,9.60
2018-06-03T22:39:52.734Z,11.13
2018-06-03T22:42:22.212Z,10.50
2018-06-03T22:44:51.643Z,11.43
2018-06-03T22:47:21.100Z,11.20
2018-06-03T22:49:50.533Z,11.40
2018-06-03T22:52:20.048Z,11.50
2018-06-03T22:54:49.752Z,13.93
2018-06-03T22:57:52.096Z,13.60
2018-06-03T23:00:25.384Z,13.77
2018-06-03T23:02:59.990Z,13.23
2018-06-03T23:05:29.184Z,14.80
2018-06-03T23:07:58.396Z,15.53
2018-06-03T23:10:27.828Z,15.27
2018-06-03T23:12:57.252Z,16.20
2018-06-03T23:15:26.450Z,17.47
2018-06-03T23:17:55.643Z,19.10
2018-06-03T23:20:24.839Z,17.90
2018-06-03T23:22:54.068Z,18.80
2018-06-03T23:25:23.508Z,18.77
2018-06-03T23:27:53.444Z,20.50
2018-06-03T23:30:22.846Z,19.30
2018-06-03T23:32:52.060Z,18.47
2018-06-03T23:35:21.614Z,18.80
2018-06-03T23:37:51.338Z,17.90
2018-06-03T23:40:20.766Z,18.57
2018-06-03T23:42:49.994Z,19.13
2018-06-03T23:45:19.458Z,20.47
2018-06-03T23:47:48.897Z,21.20
2018-06-03T23:50:18.115Z,21.50
2018-06-03T23:52:47.644Z,18.97
2018-06-03T23:55:17.305Z,20.10
2018-06-03T23:57:46.727Z,19.83
